Westview Chinook — VG3278 — position and weather

sailwx.info

Track history (hours):
 
Tides and Currents Weather Stations Pressure Air Temp Water Temp Dewpoint Dewpoint Depression Visibility Wind Speed Wind Dir Waves Ship Positions

Westview Chinook

Last reported at 2016-Sep-28 12:33 UTC. Time now 2016-Sep-28 15:22 UTC.
Position N 49°14' W 122°46'.

Length 15 m.

Type: Tug. MMSI: 316005622.

Date/timePositionNaut miles runAvg speedWind from/ knotsBaromVisibWave heightAir tempDewpointWater temp
2016-Sep-28 12:33N 49°14' W 122°46'16 3.9
2016-Sep-28 08:33N 49°07' W 123°07'28 5.5
2016-Sep-28 03:32N 49°20' W 123°45'41 3.2
2016-Sep-27 14:34N 49°46' W 124°34'2 2.3
2016-Sep-27 13:33N 49°45' W 124°31'7 2.5
2016-Sep-27 10:33N 49°42' W 124°20'61 6.1
2016-Sep-27 00:33N 49°09' W 123°00'11 2.8
2016-Sep-26 20:33N 49°15' W 123°15'3 2.8
2016-Sep-26 19:33N 49°13' W 123°12'4 1.1
2016-Sep-26 15:33N 49°12' W 123°06'6 3.1
2016-Sep-26 13:33N 49°12' W 122°56'7 3.5
2016-Sep-26 11:33N 49°07' W 123°05'16 5.4
2016-Sep-26 08:33N 49°08' W 123°29'11 1.9
2016-Sep-26 02:33N 49°15' W 123°17'9 9.4
2016-Sep-26 01:33N 49°12' W 123°03'0 0.2
2016-Sep-26 00:33N 49°12' W 123°03'0 0.0
2016-Sep-25 21:34N 49°12' W 123°03'0 0.0
2016-Sep-25 17:33N 49°12' W 123°03'0 0.0
2016-Sep-25 16:34N 49°12' W 123°03'0 0.0
2016-Sep-25 15:33N 49°12' W 123°03'0 0.0
2016-Sep-25 14:33N 49°12' W 123°03'0 0.0
2016-Sep-25 12:33N 49°12' W 123°03'0 0.0
2016-Sep-25 11:33N 49°12' W 123°03'0 0.0
2016-Sep-25 10:33N 49°12' W 123°03'5 5.1
2016-Sep-25 09:33N 49°13' W 123°10'18 8.8
2016-Sep-25 07:33N 49°14' W 123°37'5 1.5
2016-Sep-25 04:33N 49°11' W 123°43'28 6.9
2016-Sep-25 00:33N 49°09' W 123°00'0 0.0
2016-Sep-24 22:34N 49°09' W 123°00'2 2.0
2016-Sep-24 21:33N 49°09' W 122°57'3 1.3
2016-Sep-24 19:33N 49°12' W 122°56'3 3.5
2016-Sep-24 18:33N 49°09' W 122°60'1 0.8
2016-Sep-24 17:33N 49°09' W 123°01'1 1.4
2016-Sep-24 16:33N 49°08' W 123°03'1 0.5
2016-Sep-24 14:33N 49°09' W 123°01'4 2.1
2016-Sep-24 12:33N 49°07' W 123°07'5 2.5
2016-Sep-24 10:33N 49°08' W 123°14'4 3.7
2016-Sep-24 09:33N 49°06' W 123°19'11 1.8
2016-Sep-24 03:33N 49°09' W 123°35'1010.1
2016-Sep-24 02:33N 49°06' W 123°20'1110.8
2016-Sep-24 01:33N 49°08' W 123°04'1010.1
2016-Sep-24 00:33N 49°13' W 122°51'7 1.5
2016-Sep-23 19:33N 49°12' W 123°02'4 2.0
2016-Sep-23 17:33N 49°12' W 123°08'0 0.0
2016-Sep-23 16:33N 49°12' W 123°08'0 0.0
2016-Sep-23 15:33N 49°12' W 123°08'0 0.0
2016-Sep-23 13:33N 49°12' W 123°08'29 7.3
2016-Sep-23 09:33N 49°10' W 123°53'22 7.2
2016-Sep-23 06:33N 49°06' W 123°20'10 5.1
2016-Sep-23 04:33N 49°07' W 123°05'8 7.8
2016-Sep-23 03:33N 49°07' W 123°17'8 8.4
2016-Sep-23 02:33N 49°10' W 123°28'9 9.4
2016-Sep-23 01:33N 49°13' W 123°42'8 8.0
2016-Sep-23 00:33N 49°10' W 123°53'1 1.1
2016-Sep-22 23:33N 49°11' W 123°53'19 6.3
2016-Sep-22 20:33N 49°15' W 123°25'9 1.1
2016-Sep-22 12:33N 49°06' W 123°22'22 2.7
2016-Sep-22 04:33N 49°28' W 123°28'6 6.1
2016-Sep-22 03:33N 49°22' W 123°26'16 5.4
2016-Sep-22 00:33N 49°12' W 123°06'6 6.0
2016-Sep-21 23:33N 49°12' W 122°57'7 6.7
2016-Sep-21 22:32N 49°13' W 122°47'20 6.8
2016-Sep-21 19:33N 49°08' W 122°17'1 0.2
2016-Sep-21 16:33N 49°08' W 122°18'20 2.9
2016-Sep-21 09:33N 49°13' W 122°47'7 6.6
2016-Sep-21 08:33N 49°12' W 122°57'12 4.1
2016-Sep-21 05:33N 49°15' W 123°15'7 3.6
2016-Sep-21 03:33N 49°18' W 123°06'6 6.3
2016-Sep-21 02:33N 49°17' W 123°15'11 1.2
2016-Sep-20 17:33N 49°07' W 123°19'5 1.7
2016-Sep-20 14:33N 49°07' W 123°11'8 8.4
2016-Sep-20 13:33N 49°08' W 123°24'19 6.4
2016-Sep-20 10:33N 49°12' W 123°53'15 7.7
2016-Sep-20 08:33N 49°10' W 123°30'8 8.3
2016-Sep-20 07:34N 49°06' W 123°18'1010.3
2016-Sep-20 06:34N 49°09' W 123°03'13 3.2
2016-Sep-20 02:33N 49°12' W 122°43'14 4.6
2016-Sep-19 23:34N 49°12' W 123°05'25 6.2
2016-Sep-19 19:33N 49°31' W 123°29'5 4.9
2016-Sep-19 18:34N 49°26' W 123°28'17 8.7
2016-Sep-19 16:34N 49°13' W 123°11'8 4.1
2016-Sep-19 14:33N 49°09' W 122°60'1 0.5
2016-Sep-19 13:34N 49°09' W 123°00'1 1.2
2016-Sep-19 12:33N 49°09' W 123°02'2 2.3
2016-Sep-19 11:33N 49°07' W 123°05'8 4.1
2016-Sep-19 09:33N 49°07' W 123°17'4 2.1
2016-Sep-19 07:33N 49°11' W 123°19'3 2.7
2016-Sep-19 06:33N 49°13' W 123°18'8 2.6
2016-Sep-19 03:33N 49°12' W 123°06'4 4.4
2016-Sep-19 02:33N 49°11' W 122°60'2 0.9
2016-Sep-19 00:33N 49°09' W 123°00'0 0.0
2016-Sep-18 19:33N 49°09' W 123°00'0 0.0
2016-Sep-18 15:33N 49°09' W 123°00'0 0.1
2016-Sep-18 14:33N 49°09' W 123°00'  
Track history (hours):
 
Tides and Currents Weather Stations Pressure Air Temp Water Temp Dewpoint Dewpoint Depression Visibility Wind Speed Wind Dir Waves Ship Positions

Westview Chinook

Last reported at 2016-Sep-28 12:33 UTC. Time now 2016-Sep-28 15:22 UTC.
Position N 49°14' W 122°46'.

Length 15 m.

Type: Tug. MMSI: 316005622.

Date/timePositionNaut miles runAvg speedWind from/ knotsBaromVisibWave heightAir tempDewpointWater temp
2016-Sep-28 12:33N 49°14' W 122°46'16 3.9
2016-Sep-28 08:33N 49°07' W 123°07'28 5.5
2016-Sep-28 03:32N 49°20' W 123°45'41 3.2
2016-Sep-27 14:34N 49°46' W 124°34'2 2.3
2016-Sep-27 13:33N 49°45' W 124°31'7 2.5
2016-Sep-27 10:33N 49°42' W 124°20'61 6.1
2016-Sep-27 00:33N 49°09' W 123°00'11 2.8
2016-Sep-26 20:33N 49°15' W 123°15'3 2.8
2016-Sep-26 19:33N 49°13' W 123°12'4 1.1
2016-Sep-26 15:33N 49°12' W 123°06'6 3.1
2016-Sep-26 13:33N 49°12' W 122°56'7 3.5
2016-Sep-26 11:33N 49°07' W 123°05'16 5.4
2016-Sep-26 08:33N 49°08' W 123°29'11 1.9
2016-Sep-26 02:33N 49°15' W 123°17'9 9.4
2016-Sep-26 01:33N 49°12' W 123°03'0 0.2
2016-Sep-26 00:33N 49°12' W 123°03'0 0.0
2016-Sep-25 21:34N 49°12' W 123°03'0 0.0
2016-Sep-25 17:33N 49°12' W 123°03'0 0.0
2016-Sep-25 16:34N 49°12' W 123°03'0 0.0
2016-Sep-25 15:33N 49°12' W 123°03'0 0.0
2016-Sep-25 14:33N 49°12' W 123°03'0 0.0
2016-Sep-25 12:33N 49°12' W 123°03'0 0.0
2016-Sep-25 11:33N 49°12' W 123°03'0 0.0
2016-Sep-25 10:33N 49°12' W 123°03'5 5.1
2016-Sep-25 09:33N 49°13' W 123°10'18 8.8
2016-Sep-25 07:33N 49°14' W 123°37'5 1.5
2016-Sep-25 04:33N 49°11' W 123°43'28 6.9
2016-Sep-25 00:33N 49°09' W 123°00'0 0.0
2016-Sep-24 22:34N 49°09' W 123°00'2 2.0
2016-Sep-24 21:33N 49°09' W 122°57'3 1.3
2016-Sep-24 19:33N 49°12' W 122°56'3 3.5
2016-Sep-24 18:33N 49°09' W 122°60'1 0.8
2016-Sep-24 17:33N 49°09' W 123°01'1 1.4
2016-Sep-24 16:33N 49°08' W 123°03'1 0.5
2016-Sep-24 14:33N 49°09' W 123°01'4 2.1
2016-Sep-24 12:33N 49°07' W 123°07'5 2.5
2016-Sep-24 10:33N 49°08' W 123°14'4 3.7
2016-Sep-24 09:33N 49°06' W 123°19'11 1.8
2016-Sep-24 03:33N 49°09' W 123°35'1010.1
2016-Sep-24 02:33N 49°06' W 123°20'1110.8
2016-Sep-24 01:33N 49°08' W 123°04'1010.1
2016-Sep-24 00:33N 49°13' W 122°51'7 1.5
2016-Sep-23 19:33N 49°12' W 123°02'4 2.0
2016-Sep-23 17:33N 49°12' W 123°08'0 0.0
2016-Sep-23 16:33N 49°12' W 123°08'0 0.0
2016-Sep-23 15:33N 49°12' W 123°08'0 0.0
2016-Sep-23 13:33N 49°12' W 123°08'29 7.3
2016-Sep-23 09:33N 49°10' W 123°53'22 7.2
2016-Sep-23 06:33N 49°06' W 123°20'10 5.1
2016-Sep-23 04:33N 49°07' W 123°05'8 7.8
2016-Sep-23 03:33N 49°07' W 123°17'8 8.4
2016-Sep-23 02:33N 49°10' W 123°28'9 9.4
2016-Sep-23 01:33N 49°13' W 123°42'8 8.0
2016-Sep-23 00:33N 49°10' W 123°53'1 1.1
2016-Sep-22 23:33N 49°11' W 123°53'19 6.3
2016-Sep-22 20:33N 49°15' W 123°25'9 1.1
2016-Sep-22 12:33N 49°06' W 123°22'22 2.7
2016-Sep-22 04:33N 49°28' W 123°28'6 6.1
2016-Sep-22 03:33N 49°22' W 123°26'16 5.4
2016-Sep-22 00:33N 49°12' W 123°06'6 6.0
2016-Sep-21 23:33N 49°12' W 122°57'7 6.7
2016-Sep-21 22:32N 49°13' W 122°47'20 6.8
2016-Sep-21 19:33N 49°08' W 122°17'1 0.2
2016-Sep-21 16:33N 49°08' W 122°18'20 2.9
2016-Sep-21 09:33N 49°13' W 122°47'7 6.6
2016-Sep-21 08:33N 49°12' W 122°57'12 4.1
2016-Sep-21 05:33N 49°15' W 123°15'7 3.6
2016-Sep-21 03:33N 49°18' W 123°06'6 6.3
2016-Sep-21 02:33N 49°17' W 123°15'11 1.2
2016-Sep-20 17:33N 49°07' W 123°19'5 1.7
2016-Sep-20 14:33N 49°07' W 123°11'8 8.4
2016-Sep-20 13:33N 49°08' W 123°24'19 6.4
2016-Sep-20 10:33N 49°12' W 123°53'15 7.7
2016-Sep-20 08:33N 49°10' W 123°30'8 8.3
2016-Sep-20 07:34N 49°06' W 123°18'1010.3
2016-Sep-20 06:34N 49°09' W 123°03'13 3.2
2016-Sep-20 02:33N 49°12' W 122°43'14 4.6
2016-Sep-19 23:34N 49°12' W 123°05'25 6.2
2016-Sep-19 19:33N 49°31' W 123°29'5 4.9
2016-Sep-19 18:34N 49°26' W 123°28'17 8.7
2016-Sep-19 16:34N 49°13' W 123°11'8 4.1
2016-Sep-19 14:33N 49°09' W 122°60'1 0.5
2016-Sep-19 13:34N 49°09' W 123°00'1 1.2
2016-Sep-19 12:33N 49°09' W 123°02'2 2.3
2016-Sep-19 11:33N 49°07' W 123°05'8 4.1
2016-Sep-19 09:33N 49°07' W 123°17'4 2.1
2016-Sep-19 07:33N 49°11' W 123°19'3 2.7
2016-Sep-19 06:33N 49°13' W 123°18'8 2.6
2016-Sep-19 03:33N 49°12' W 123°06'4 4.4
2016-Sep-19 02:33N 49°11' W 122°60'2 0.9
2016-Sep-19 00:33N 49°09' W 123°00'0 0.0
2016-Sep-18 19:33N 49°09' W 123°00'0 0.0
2016-Sep-18 15:33N 49°09' W 123°00'0 0.1
2016-Sep-18 14:33N 49°09' W 123°00'  

Dump ship's entire track history